createdAt,value
2019-01-17T00:01:30.435Z,94609.23
2019-01-17T00:07:59.645Z,94607.39
2019-01-17T00:10:57.817Z,94606.01
2019-01-17T00:13:49.177Z,94598.75
2019-01-17T00:16:58.578Z,94607.70
2019-01-17T00:20:03.711Z,94596.68
2019-01-17T00:23:13.144Z,94599.59
2019-01-17T00:26:19.550Z,94590.84
2019-01-17T00:29:19.391Z,94597.08
2019-01-17T00:32:21.595Z,94595.18
2019-01-17T00:35:30.968Z,94593.00
2019-01-17T00:38:38.863Z,94600.94
2019-01-17T00:41:48.253Z,94597.00
2019-01-17T00:44:50.224Z,94596.17
2019-01-17T00:47:59.614Z,94600.48
2019-01-17T00:50:54.956Z,94607.97
2019-01-17T00:53:59.385Z,94608.64
2019-01-17T00:57:02.391Z,94594.31
2019-01-17T01:00:11.764Z,94596.05
2019-01-17T01:03:08.857Z,94601.54
2019-01-17T01:06:09.281Z,94602.94
2019-01-17T01:09:11.263Z,94612.98
2019-01-17T01:12:20.660Z,94603.73
2019-01-17T01:15:23.141Z,94609.71
2019-01-17T01:18:33.051Z,94611.92
2019-01-17T01:21:42.298Z,94617.59
2019-01-17T01:24:49.955Z,94614.52
2019-01-17T01:27:50.316Z,94608.91
2019-01-17T01:30:58.525Z,94607.96
2019-01-17T01:34:06.586Z,94607.35
2019-01-17T01:37:15.966Z,94600.32
2019-01-17T01:40:18.052Z,94605.72
2019-01-17T01:43:27.444Z,94606.08
2019-01-17T01:46:29.165Z,94607.41
2019-01-17T01:49:44.800Z,94608.91
2019-01-17T01:52:44.082Z,94608.64
2019-01-17T01:55:27.257Z,94613.23
2019-01-17T01:58:17.764Z,94609.59
2019-01-17T02:01:00.511Z,94609.92
2019-01-17T02:03:51.029Z,94613.23
2019-01-17T02:06:35.893Z,94615.67
2019-01-17T02:09:17.465Z,94607.25
2019-01-17T02:12:07.967Z,94613.29
2019-01-17T02:14:51.446Z,94614.01
2019-01-17T02:17:42.010Z,94616.23
2019-01-17T02:20:24.964Z,94623.34
2019-01-17T02:23:15.481Z,94622.05
2019-01-17T02:25:58.995Z,94625.73
2019-01-17T02:28:49.502Z,94628.42
2019-01-17T02:31:32.745Z,94630.20
2019-01-17T02:34:23.471Z,94630.81
2019-01-17T02:37:06.890Z,94632.33
2019-01-17T02:39:51.817Z,94632.27
2019-01-17T02:42:42.339Z,94631.59
2019-01-17T02:45:25.818Z,94636.83
2019-01-17T02:48:16.325Z,94632.15
2019-01-17T02:50:59.762Z,94636.22
2019-01-17T02:53:50.278Z,94638.47
2019-01-17T02:56:31.881Z,94636.11
2019-01-17T03:02:43.052Z,94640.72
2019-01-17T03:05:26.286Z,94637.84
2019-01-17T03:08:16.792Z,94648.03
2019-01-17T03:11:00.186Z,94640.84
2019-01-17T03:13:50.704Z,94638.98
2019-01-17T03:16:34.029Z,94639.92
2019-01-17T03:19:24.526Z,94648.24
2019-01-17T03:22:07.502Z,94644.02
2019-01-17T03:24:50.237Z,94642.25
2019-01-17T03:27:40.867Z,94634.52
2019-01-17T03:30:23.845Z,94634.05
2019-01-17T03:33:14.356Z,94621.84
2019-01-17T03:35:57.334Z,94631.58
2019-01-17T03:38:40.695Z,94628.53
2019-01-17T03:41:24.108Z,94630.60
2019-01-17T03:44:14.680Z,94634.48
2019-01-17T03:46:58.030Z,94625.90
2019-01-17T03:49:48.540Z,94634.72
2019-01-17T03:52:31.427Z,94636.66
2019-01-17T03:58:30.999Z,94631.85
2019-01-17T04:01:21.506Z,94625.30
2019-01-17T04:04:04.224Z,94625.82
2019-01-17T04:06:54.765Z,94621.11
2019-01-17T04:09:37.942Z,94618.52
2019-01-17T04:12:28.485Z,94619.81
2019-01-17T04:15:14.653Z,94618.17
2019-01-17T04:18:05.185Z,94613.84
2019-01-17T04:20:46.688Z,94613.58
2019-01-17T04:23:37.223Z,94613.16
2019-01-17T04:26:20.424Z,94616.06
2019-01-17T04:29:10.939Z,94613.51
2019-01-17T04:31:53.679Z,94617.38
2019-01-17T04:34:45.181Z,94614.28
2019-01-17T04:37:28.595Z,94621.00
2019-01-17T04:40:19.113Z,94618.07
2019-01-17T04:43:02.501Z,94617.12
2019-01-17T04:45:53.023Z,94617.24
2019-01-17T04:48:40.065Z,94608.38
2019-01-17T04:51:30.586Z,94615.52
2019-01-17T04:54:13.978Z,94616.60
2019-01-17T04:57:16.445Z,94614.95
2019-01-17T04:59:54.877Z,94620.22
2019-01-17T05:02:45.403Z,94622.45
2019-01-17T05:05:28.172Z,94628.41
2019-01-17T05:08:18.693Z,94632.86
2019-01-17T05:11:01.760Z,94622.20
2019-01-17T05:13:53.830Z,94625.46
2019-01-17T05:16:37.325Z,94626.81
2019-01-17T05:19:27.925Z,94625.25
2019-01-17T05:22:11.085Z,94626.32
2019-01-17T05:25:01.624Z,94627.61
2019-01-17T05:27:45.094Z,94618.94
2019-01-17T05:30:35.635Z,94608.75
2019-01-17T05:33:18.735Z,94614.62
2019-01-17T05:36:09.276Z,94608.16
2019-01-17T05:38:52.620Z,94609.78
2019-01-17T05:41:43.197Z,94611.95
2019-01-17T05:44:24.722Z,94601.98
2019-01-17T05:47:15.262Z,94607.19
2019-01-17T05:49:58.125Z,94611.45
2019-01-17T05:52:48.666Z,94604.06
2019-01-17T05:55:31.831Z,94603.39
2019-01-17T05:58:22.342Z,94595.71
2019-01-17T06:01:05.930Z,94596.58
2019-01-17T06:07:08.368Z,94595.20
2019-01-17T06:09:51.488Z,94582.54
2019-01-17T06:12:42.033Z,94585.80
2019-01-17T06:15:26.053Z,94576.35
2019-01-17T06:18:16.543Z,94587.89
2019-01-17T06:20:59.937Z,94582.84
2019-01-17T06:23:50.467Z,94582.04
2019-01-17T06:26:33.870Z,94576.42
2019-01-17T06:29:16.745Z,94570.34
2019-01-17T06:32:07.250Z,94576.03
2019-01-17T06:34:50.456Z,94572.97
2019-01-17T06:37:40.980Z,94563.28
2019-01-17T06:40:25.632Z,94565.17
2019-01-17T06:43:16.157Z,94565.03
2019-01-17T06:45:59.328Z,94561.89
2019-01-17T06:48:49.897Z,94563.64
2019-01-17T06:51:33.354Z,94568.80
2019-01-17T06:54:23.877Z,94560.66
2019-01-17T06:57:07.380Z,94558.42
2019-01-17T06:59:57.967Z,94558.27
2019-01-17T07:02:41.259Z,94551.95
2019-01-17T07:05:31.833Z,94548.20
2019-01-17T07:08:15.394Z,94547.28
2019-01-17T07:11:05.849Z,94547.91
2019-01-17T07:13:49.098Z,94544.16
2019-01-17T07:16:39.620Z,94555.50
2019-01-17T07:19:23.089Z,94542.75
2019-01-17T07:22:13.650Z,94541.69
2019-01-17T07:24:56.934Z,94545.53
2019-01-17T07:27:40.163Z,94547.77
2019-01-17T07:30:23.295Z,94536.00
2019-01-17T07:33:06.515Z,94535.87
2019-01-17T07:35:57.075Z,94534.27
2019-01-17T07:38:40.360Z,94539.95
2019-01-17T07:41:30.843Z,94544.17
2019-01-17T07:44:13.752Z,94533.28
2019-01-17T07:47:04.302Z,94529.59
2019-01-17T07:49:47.632Z,94537.71
2019-01-17T07:52:38.248Z,94536.45
2019-01-17T07:55:21.756Z,94529.62
2019-01-17T07:58:12.389Z,94538.66
2019-01-17T08:00:56.007Z,94533.47
2019-01-17T08:03:48.649Z,94532.06
2019-01-17T08:06:31.638Z,94540.76
2019-01-17T08:09:22.172Z,94542.63
2019-01-17T08:12:05.277Z,94546.23
2019-01-17T08:14:55.834Z,94515.56
2019-01-17T08:17:38.967Z,94528.13
2019-01-17T08:20:29.538Z,94521.82
2019-01-17T08:23:11.079Z,94524.25
2019-01-17T08:26:01.632Z,94520.83
2019-01-17T08:28:43.378Z,94522.59
2019-01-17T08:31:26.653Z,94531.06
2019-01-17T08:34:08.135Z,94526.61
2019-01-17T08:36:58.653Z,94530.62
2019-01-17T08:39:42.038Z,94528.17
2019-01-17T08:42:33.686Z,94529.22
2019-01-17T08:45:26.024Z,94537.02
2019-01-17T08:48:18.925Z,94536.17
2019-01-17T08:51:00.526Z,94534.17
2019-01-17T08:53:51.051Z,94533.01
2019-01-17T08:56:32.628Z,94533.56
2019-01-17T08:59:23.149Z,94540.73
2019-01-17T09:02:06.413Z,94535.41
2019-01-17T09:04:57.022Z,94529.68
2019-01-17T09:07:40.360Z,94533.83
2019-01-17T09:10:31.419Z,94526.36
2019-01-17T09:13:13.068Z,94517.23
2019-01-17T09:16:03.607Z,94528.66
2019-01-17T09:18:49.661Z,94519.66
2019-01-17T09:21:40.193Z,94520.59
2019-01-17T09:24:21.785Z,94516.11
2019-01-17T09:27:12.346Z,94511.48
2019-01-17T09:29:55.863Z,94522.58
2019-01-17T09:32:38.733Z,94515.92
2019-01-17T09:35:29.282Z,94517.36
2019-01-17T09:38:12.812Z,94515.59
2019-01-17T09:40:55.631Z,94513.66
2019-01-17T09:43:46.131Z,94517.05
2019-01-17T09:46:29.269Z,94513.89
2019-01-17T09:49:19.763Z,94510.10
2019-01-17T09:52:03.279Z,94506.97
2019-01-17T09:54:54.667Z,94494.20
2019-01-17T09:57:37.963Z,94494.61
2019-01-17T10:00:30.311Z,94503.61
2019-01-17T10:03:13.853Z,94515.60
2019-01-17T10:06:04.387Z,94496.31
2019-01-17T10:08:47.870Z,94495.91
2019-01-17T10:11:38.425Z,94491.69
2019-01-17T10:14:21.404Z,94494.62
2019-01-17T10:17:52.659Z,94484.18
2019-01-17T10:20:55.163Z,94487.08
2019-01-17T10:24:23.933Z,94477.05
2019-01-17T10:27:25.966Z,94477.19
2019-01-17T10:30:28.077Z,94479.78
2019-01-17T10:33:23.687Z,94480.42
2019-01-17T10:36:14.875Z,94484.06
2019-01-17T10:39:29.941Z,94478.37
2019-01-17T10:42:21.699Z,94480.61
2019-01-17T10:45:35.560Z,94462.17
2019-01-17T10:48:38.189Z,94462.56
2019-01-17T10:52:06.975Z,94476.75
2019-01-17T10:55:09.495Z,94476.02
2019-01-17T10:57:59.011Z,94469.04
2019-01-17T11:01:27.825Z,94464.35
2019-01-17T11:04:23.019Z,94458.94
2019-01-17T11:07:40.555Z,94443.88
2019-01-17T11:10:45.861Z,94447.59
2019-01-17T11:13:47.914Z,94447.19
2019-01-17T11:17:16.675Z,94446.21
2019-01-17T11:20:06.559Z,94449.72
2019-01-17T11:23:20.958Z,94439.39
2019-01-17T11:26:23.573Z,94435.78
2019-01-17T11:29:17.301Z,94423.71
2019-01-17T11:32:19.886Z,94427.05
2019-01-17T11:35:48.727Z,94405.02
2019-01-17T11:38:51.204Z,94411.57
2019-01-17T11:42:19.935Z,94404.13
2019-01-17T11:45:27.621Z,94414.11
2019-01-17T11:48:39.955Z,94402.90
2019-01-17T11:51:32.673Z,94412.91
2019-01-17T11:54:50.216Z,94405.13
2019-01-17T11:57:52.873Z,94413.13
2019-01-17T12:01:06.970Z,94411.32
2019-01-17T12:03:58.742Z,94402.60
2019-01-17T12:06:49.270Z,94409.95
2019-01-17T12:09:30.848Z,94418.81
2019-01-17T12:15:47.522Z,94410.98
2019-01-17T12:18:40.506Z,94414.43
2019-01-17T12:21:22.048Z,94406.45
2019-01-17T12:24:12.620Z,94405.02
2019-01-17T12:26:55.758Z,94396.60
2019-01-17T12:29:46.327Z,94400.09
2019-01-17T12:32:29.777Z,94406.52
2019-01-17T12:35:20.291Z,94404.41
2019-01-17T12:38:03.150Z,94397.03
2019-01-17T12:40:46.483Z,94402.50
2019-01-17T12:43:38.006Z,94392.82
2019-01-17T12:46:22.607Z,94396.48
2019-01-17T12:49:13.183Z,94379.73
2019-01-17T12:51:56.620Z,94386.34
2019-01-17T12:54:47.142Z,94392.89
2019-01-17T12:57:28.722Z,94392.20
2019-01-17T13:00:20.855Z,94393.08
2019-01-17T13:03:03.645Z,94404.51
2019-01-17T13:05:54.166Z,94398.27
2019-01-17T13:08:38.788Z,94400.81
2019-01-17T13:11:21.834Z,94406.17
2019-01-17T13:14:12.414Z,94402.98
2019-01-17T13:16:55.699Z,94410.96
2019-01-17T13:19:46.288Z,94412.45
2019-01-17T13:22:29.156Z,94415.22
2019-01-17T13:29:01.306Z,94425.64
2019-01-17T13:31:44.746Z,94431.30
2019-01-17T13:34:35.348Z,94432.34
2019-01-17T13:37:18.683Z,94425.53
2019-01-17T13:40:29.945Z,94442.03
2019-01-17T13:43:12.872Z,94437.20
2019-01-17T13:46:03.434Z,94445.25
2019-01-17T13:48:46.836Z,94438.03
2019-01-17T13:51:48.615Z,94446.41
2019-01-17T13:54:31.949Z,94455.08
2019-01-17T13:57:22.494Z,94454.39
2019-01-17T14:00:09.448Z,94456.11
2019-01-17T14:02:59.969Z,94456.84
2019-01-17T14:05:43.439Z,94455.73
2019-01-17T14:08:34.082Z,94450.39
2019-01-17T14:11:17.688Z,94452.70
2019-01-17T14:14:00.528Z,94447.32
2019-01-17T14:16:51.062Z,94447.81
2019-01-17T14:19:34.207Z,94466.89
2019-01-17T14:22:24.752Z,94463.19
2019-01-17T14:25:08.204Z,94451.61
2019-01-17T14:27:51.007Z,94465.05
2019-01-17T14:30:41.708Z,94467.17
2019-01-17T14:33:25.064Z,94472.21
2019-01-17T14:36:15.614Z,94475.47
2019-01-17T14:38:59.086Z,94477.88
2019-01-17T14:41:49.633Z,94481.84
2019-01-17T14:44:32.790Z,94483.80
2019-01-17T14:47:23.350Z,94490.27
2019-01-17T14:50:07.441Z,94492.39
2019-01-17T14:52:57.952Z,94497.50
2019-01-17T14:55:41.115Z,94494.45
2019-01-17T14:58:31.639Z,94495.27
2019-01-17T15:01:14.440Z,94485.78
2019-01-17T15:04:05.094Z,94504.28
2019-01-17T15:06:48.434Z,94509.59
2019-01-17T15:09:39.002Z,94504.30
2019-01-17T15:12:20.672Z,94507.80
2019-01-17T15:15:04.183Z,94526.23
2019-01-17T15:17:54.801Z,94517.48
2019-01-17T15:20:38.304Z,94518.33
2019-01-17T15:23:28.846Z,94542.48
2019-01-17T15:26:12.205Z,94537.80
2019-01-17T15:29:02.746Z,94541.31
2019-01-17T15:31:45.442Z,94533.89
2019-01-17T15:34:28.357Z,94542.28
2019-01-17T15:37:18.833Z,94534.89
2019-01-17T15:40:03.804Z,94539.45
2019-01-17T15:42:54.344Z,94538.70
2019-01-17T15:45:35.929Z,94538.70
2019-01-17T15:48:26.401Z,94531.92
2019-01-17T15:51:12.122Z,94541.66
2019-01-17T15:54:02.688Z,94536.13
2019-01-17T15:56:46.155Z,94550.55
2019-01-17T16:02:57.767Z,94544.02
2019-01-17T16:05:59.252Z,94544.56
2019-01-17T16:08:49.792Z,94557.02
2019-01-17T16:11:33.342Z,94564.17
2019-01-17T16:14:23.935Z,94561.88
2019-01-17T16:17:07.305Z,94574.63
2019-01-17T16:19:59.888Z,94566.31
2019-01-17T16:22:41.427Z,94565.36
2019-01-17T16:25:31.970Z,94569.72
2019-01-17T16:28:15.601Z,94581.21
2019-01-17T16:31:06.230Z,94574.50
2019-01-17T16:33:49.487Z,94576.22
2019-01-17T16:36:40.095Z,94578.86
2019-01-17T16:39:21.661Z,94577.91
2019-01-17T16:45:15.762Z,94581.44
2019-01-17T16:47:59.066Z,94595.27
2019-01-17T16:51:08.572Z,94590.17
2019-01-17T16:53:51.803Z,94593.89
2019-01-17T16:56:42.599Z,94610.57
2019-01-17T16:59:25.941Z,94615.45
2019-01-17T17:02:09.297Z,94616.64
2019-01-17T17:08:01.677Z,94622.74
2019-01-17T17:10:52.186Z,94627.13
2019-01-17T17:13:35.759Z,94629.95
2019-01-17T17:19:28.509Z,94640.95
2019-01-17T17:22:19.040Z,94641.88
2019-01-17T17:25:02.219Z,94647.97
2019-01-17T17:27:45.123Z,94653.83
2019-01-17T17:30:35.643Z,94652.22
2019-01-17T17:33:18.632Z,94648.69
2019-01-17T17:36:09.137Z,94650.66
2019-01-17T17:38:52.585Z,94650.43
2019-01-17T17:41:43.123Z,94650.44
2019-01-17T17:44:24.723Z,94644.95
2019-01-17T17:47:15.237Z,94650.22
2019-01-17T17:49:59.201Z,94653.73
2019-01-17T17:52:49.763Z,94651.83
2019-01-17T17:55:34.446Z,94655.45
2019-01-17T17:58:17.690Z,94656.75
2019-01-17T18:01:27.097Z,94665.30
2019-01-17T18:04:10.297Z,94667.99
2019-01-17T18:07:00.866Z,94671.99
2019-01-17T18:09:42.546Z,94671.52
2019-01-17T18:12:33.128Z,94686.24
2019-01-17T18:15:16.677Z,94670.33
2019-01-17T18:18:07.305Z,94676.52
2019-01-17T18:20:48.878Z,94675.25
2019-01-17T18:23:39.417Z,94687.06
2019-01-17T18:26:20.995Z,94677.70
2019-01-17T18:29:02.497Z,94695.50
2019-01-17T18:31:53.018Z,94692.58
2019-01-17T18:34:34.700Z,94693.84
2019-01-17T18:37:25.295Z,94693.16
2019-01-17T18:40:09.398Z,94694.79
2019-01-17T18:46:09.332Z,94708.92
2019-01-17T18:49:02.321Z,94720.05
2019-01-17T18:51:45.704Z,94708.58
2019-01-17T18:54:29.182Z,94712.32
2019-01-17T18:57:19.757Z,94705.41
2019-01-17T19:00:04.933Z,94710.80
2019-01-17T19:02:55.656Z,94708.00
2019-01-17T19:05:38.478Z,94703.22
2019-01-17T19:08:49.625Z,94708.23
2019-01-17T19:11:31.172Z,94709.89
2019-01-17T19:14:40.555Z,94707.54
2019-01-17T19:17:24.072Z,94702.51
2019-01-17T19:20:15.671Z,94715.15
2019-01-17T19:22:59.168Z,94704.26
2019-01-17T19:25:42.261Z,94703.77
2019-01-17T19:28:32.831Z,94712.20
2019-01-17T19:31:16.313Z,94721.44
2019-01-17T19:33:59.263Z,94728.10
2019-01-17T19:39:42.693Z,94734.87
2019-01-17T19:42:42.663Z,94731.20
2019-01-17T19:45:26.052Z,94725.41
2019-01-17T19:48:07.582Z,94726.20
2019-01-17T19:50:52.397Z,94730.56
2019-01-17T19:53:42.927Z,94721.52
2019-01-17T19:56:26.271Z,94725.53
2019-01-17T19:59:48.366Z,94733.09
2019-01-17T20:02:42.490Z,94734.98
2019-01-17T20:05:33.947Z,94740.73
2019-01-17T20:08:16.882Z,94743.53
2019-01-17T20:11:07.443Z,94742.25
2019-01-17T20:13:50.902Z,94729.84
2019-01-17T20:17:20.921Z,94737.67
2019-01-17T20:20:04.359Z,94743.05
2019-01-17T20:22:54.895Z,94739.30
2019-01-17T20:25:37.794Z,94732.02
2019-01-17T20:28:21.105Z,94733.48
2019-01-17T20:31:11.635Z,94737.94
2019-01-17T20:33:54.880Z,94732.27
2019-01-17T20:36:45.472Z,94739.06
2019-01-17T20:39:29.105Z,94726.66
2019-01-17T20:42:12.121Z,94744.28
2019-01-17T20:45:03.574Z,94747.34
2019-01-17T20:47:45.206Z,94754.84
2019-01-17T20:50:35.828Z,94752.16
2019-01-17T20:53:37.823Z,94754.33
2019-01-17T20:56:28.332Z,94759.47
2019-01-17T20:59:11.695Z,94767.43
2019-01-17T21:02:21.472Z,94769.88
2019-01-17T21:05:07.162Z,94774.17
2019-01-17T21:07:58.798Z,94772.11
2019-01-17T21:10:43.243Z,94771.52
2019-01-17T21:13:33.765Z,94780.86
2019-01-17T21:16:17.544Z,94778.02
2019-01-17T21:19:08.092Z,94799.86
2019-01-17T21:21:53.102Z,94780.11
2019-01-17T21:24:43.663Z,94800.25
2019-01-17T21:27:33.134Z,94800.55
2019-01-17T21:30:24.123Z,94801.26
2019-01-17T21:33:07.658Z,94807.77
2019-01-17T21:39:00.663Z,94815.34
2019-01-17T21:41:52.779Z,94825.16
2019-01-17T21:44:36.193Z,94826.23
2019-01-17T21:50:29.094Z,94838.05
2019-01-17T21:53:19.629Z,94840.78
2019-01-17T21:56:02.921Z,94846.36
2019-01-17T21:58:55.977Z,94845.20
2019-01-17T22:01:57.733Z,94851.83
2019-01-17T22:04:48.284Z,94869.49
2019-01-17T22:07:31.712Z,94880.25
2019-01-17T22:10:33.146Z,94892.89
2019-01-17T22:13:23.692Z,94895.96
2019-01-17T22:16:07.053Z,94905.20
2019-01-17T22:18:57.600Z,94916.32
2019-01-17T22:21:40.746Z,94914.89
2019-01-17T22:24:31.298Z,94909.77
2019-01-17T22:27:14.612Z,94908.53
2019-01-17T22:33:27.961Z,94906.15
2019-01-17T22:36:09.518Z,94918.49
2019-01-17T22:39:00.042Z,94924.45
2019-01-17T22:41:41.502Z,94924.17
2019-01-17T22:47:41.618Z,94923.27
2019-01-17T22:50:32.128Z,94922.13
2019-01-17T22:53:15.095Z,94914.69
2019-01-17T22:56:05.638Z,94915.83
2019-01-17T22:58:48.872Z,94914.19
2019-01-17T23:01:40.460Z,94920.33
2019-01-17T23:04:25.575Z,94920.31
2019-01-17T23:07:16.089Z,94918.82
2019-01-17T23:09:59.657Z,94919.38
2019-01-17T23:12:50.197Z,94925.66
2019-01-17T23:15:33.218Z,94910.00
2019-01-17T23:18:23.777Z,94921.45
2019-01-17T23:21:07.366Z,94920.86
2019-01-17T23:23:57.873Z,94923.42
2019-01-17T23:26:49.615Z,94918.44
2019-01-17T23:29:40.084Z,94922.44
2019-01-17T23:32:23.524Z,94911.53
2019-01-17T23:35:07.936Z,94918.89
2019-01-17T23:37:58.456Z,94915.04
2019-01-17T23:41:00.836Z,94913.76
2019-01-17T23:43:51.350Z,94908.73
2019-01-17T23:46:34.858Z,94915.63
2019-01-17T23:49:17.640Z,94919.73
2019-01-17T23:52:00.346Z,94924.61
2019-01-17T23:54:50.853Z,94921.36
2019-01-17T23:57:34.365Z,94909.46
